Time;durP1;ratioP1;P1;durP2;ratioP2;P2;SDS_P1;SDS_P2;PMS_P1;PMS_P2;Temp;Humidity;BMP_temperature;BMP_pressure;BME280_temperature;BME280_humidity;BME280_pressure;Samples;Min_cycle;Max_cycle;Signal;HPM_P1;HPM_P2
2023/05/25 00:02:03;;;;;;;21.60;5.57;;;;;;;9.22;100.00;102384.09;4882828;29;20481;-81
2023/05/25 00:04:35;;;;;;;17.80;5.10;;;;;;;9.18;100.00;102382.72;4882907;29;20480;-81
2023/05/25 00:07:01;;;;;;;13.43;4.57;;;;;;;9.17;100.00;102383.75;4882957;29;20048;-81
2023/05/25 00:09:26;;;;;;;12.33;5.27;;;;;;;9.16;100.00;102384.75;4883033;29;20033;-81
2023/05/25 00:11:52;;;;;;;16.13;5.10;;;;;;;9.15;100.00;102384.94;4899592;29;20033;-81
2023/05/25 00:14:18;;;;;;;16.53;4.97;;;;;;;9.11;100.00;102382.56;4883005;29;20381;-81
2023/05/25 00:16:47;;;;;;;12.38;5.25;;;;;;;9.09;100.00;102384.59;4882715;29;20044;-81
2023/05/25 00:19:12;;;;;;;15.75;5.03;;;;;;;9.07;100.00;102392.03;4868036;29;20119;-81
2023/05/25 00:21:38;;;;;;;14.43;5.07;;;;;;;9.04;100.00;102386.94;4882774;29;20127;-81
2023/05/25 00:24:04;;;;;;;17.10;5.40;;;;;;;9.01;100.00;102391.88;4882567;29;20552;-81
2023/05/25 00:26:29;;;;;;;15.40;4.82;;;;;;;9.00;100.00;102391.00;4867440;29;20156;-81
2023/05/25 00:28:55;;;;;;;14.90;4.97;;;;;;;8.99;100.00;102392.03;4882847;29;20624;-81
2023/05/25 00:31:21;;;;;;;13.33;4.77;;;;;;;8.99;100.00;102385.75;4851749;29;20056;-81
2023/05/25 00:33:46;;;;;;;15.37;4.87;;;;;;;8.96;100.00;102381.50;4882518;29;20084;-81
2023/05/25 00:36:11;;;;;;;12.68;4.97;;;;;;;8.94;100.00;102391.66;4851702;29;20465;-81
2023/05/25 00:38:37;;;;;;;19.73;5.20;;;;;;;8.91;100.00;102392.00;4866934;29;20104;-81
2023/05/25 00:41:04;;;;;;;14.37;4.93;;;;;;;8.88;100.00;102395.88;4866855;29;20363;-81
2023/05/25 00:43:30;;;;;;;14.30;4.80;;;;;;;8.85;100.00;102393.50;4882800;29;20378;-81
2023/05/25 00:45:56;;;;;;;9.13;4.30;;;;;;;8.83;100.00;102394.69;4882145;29;20047;-81
2023/05/25 00:48:24;;;;;;;12.93;5.18;;;;;;;8.78;100.00;102398.75;4867529;29;20072;-81
2023/05/25 00:50:53;;;;;;;13.88;5.03;;;;;;;8.75;100.00;102401.81;4899444;29;20032;-81
2023/05/25 00:53:20;;;;;;;14.40;4.47;;;;;;;8.72;100.00;102396.69;4882160;29;20389;-81
2023/05/25 00:56:19;;;;;;;15.88;5.32;;;;;;;8.71;100.00;102392.31;4866734;29;20040;-81
2023/05/25 00:58:48;;;;;;;10.47;4.57;;;;;;;8.68;100.00;102389.06;4895437;29;20043;-81
2023/05/25 01:01:14;;;;;;;19.20;4.63;;;;;;;8.64;100.00;102388.56;4898529;29;20455;-82
2023/05/25 01:03:44;;;;;;;16.15;5.03;;;;;;;8.61;100.00;102391.59;4882815;29;20450;-81
2023/05/25 01:06:14;;;;;;;16.70;5.47;;;;;;;8.62;100.00;102400.56;4883131;29;20068;-81
2023/05/25 01:08:46;;;;;;;15.63;5.40;;;;;;;8.59;100.00;102409.84;4881942;29;20084;-81
2023/05/25 01:11:13;;;;;;;12.00;5.00;;;;;;;8.58;100.00;102403.59;4881934;29;20024;-81
2023/05/25 01:13:40;;;;;;;17.70;5.45;;;;;;;8.57;100.00;102407.31;4898787;29;20068;-81
2023/05/25 01:16:07;;;;;;;15.50;4.60;;;;;;;8.55;100.00;102405.78;4866556;29;20131;-81
2023/05/25 01:18:33;;;;;;;15.27;4.65;;;;;;;8.56;100.00;102410.19;4898634;29;20124;-81
2023/05/25 01:21:12;;;;;;;16.80;4.93;;;;;;;8.54;100.00;102412.22;4851283;29;20385;-81
2023/05/25 01:23:41;;;;;;;16.65;4.50;;;;;;;8.55;100.00;102397.69;4898656;29;20040;-81
2023/05/25 01:26:13;;;;;;;12.20;4.70;;;;;;;8.54;100.00;102414.91;4882229;29;20089;-81
2023/05/25 01:28:45;;;;;;;14.20;4.67;;;;;;;8.52;100.00;102409.66;4881882;29;20122;-81
2023/05/25 01:31:13;;;;;;;17.00;4.82;;;;;;;8.50;100.00;102414.38;4881629;29;20055;-81
2023/05/25 01:33:40;;;;;;;12.25;4.55;;;;;;;8.51;100.00;102423.34;4898231;29;20032;-81
2023/05/25 01:36:06;;;;;;;16.15;5.30;;;;;;;8.50;100.00;102418.94;4881755;29;20040;-81
2023/05/25 01:38:32;;;;;;;10.60;4.23;;;;;;;8.48;100.00;102421.81;4882298;29;20088;-82
2023/05/25 01:40:57;;;;;;;15.05;4.78;;;;;;;8.46;100.00;102418.44;4881613;29;20488;-81
2023/05/25 01:43:24;;;;;;;12.37;4.90;;;;;;;8.44;100.00;102425.84;4882072;29;20097;-81
2023/05/25 01:45:55;;;;;;;11.23;4.55;;;;;;;8.41;100.00;102423.44;4898501;29;20041;-81
2023/05/25 01:48:42;;;;;;;18.02;4.72;;;;;;;8.39;100.00;102420.91;4882390;29;20032;-81
2023/05/25 01:51:25;;;;;;;14.30;4.33;;;;;;;8.37;100.00;102425.63;4898478;29;20032;-81
2023/05/25 01:53:59;;;;;;;12.43;4.30;;;;;;;8.33;100.00;102429.66;4881839;29;20029;-81
2023/05/25 01:56:30;;;;;;;14.32;4.85;;;;;;;8.31;100.00;102426.28;4898538;29;20036;-81
2023/05/25 01:59:00;;;;;;;14.05;4.80;;;;;;;8.29;100.00;102425.59;4881917;29;20032;-81
2023/05/25 02:01:26;;;;;;;10.40;4.78;;;;;;;8.25;100.00;102435.91;4881770;29;20044;-81
2023/05/25 02:03:52;;;;;;;14.23;4.63;;;;;;;8.24;100.00;102436.91;4881537;29;20393;-81
2023/05/25 02:06:18;;;;;;;15.07;4.65;;;;;;;8.20;100.00;102431.97;4881666;29;20044;-81
2023/05/25 02:08:44;;;;;;;7.87;4.17;;;;;;;8.18;100.00;102433.97;4866294;29;20127;-81
2023/05/25 02:11:13;;;;;;;10.32;4.10;;;;;;;8.13;100.00;102423.63;4866268;29;20037;-81
2023/05/25 02:13:38;;;;;;;12.88;4.65;;;;;;;8.12;100.00;102429.22;4897879;29;20061;-81
2023/05/25 02:16:04;;;;;;;14.68;4.40;;;;;;;8.12;100.00;102429.22;4881648;29;20024;-81
2023/05/25 02:18:30;;;;;;;12.60;4.40;;;;;;;8.11;100.00;102427.53;4881246;29;20033;-81
2023/05/25 02:20:55;;;;;;;15.37;4.97;;;;;;;8.08;100.00;102423.28;4881513;29;20060;-81
2023/05/25 02:23:20;;;;;;;12.17;4.47;;;;;;;8.04;100.00;102419.22;4881495;29;20029;-81
2023/05/25 02:25:46;;;;;;;14.95;4.80;;;;;;;8.01;100.00;102420.38;4867876;29;20537;-81
2023/05/25 02:28:11;;;;;;;11.80;4.67;;;;;;;7.97;100.00;102427.13;4853962;29;20041;-81
2023/05/25 02:30:37;;;;;;;10.63;4.93;;;;;;;7.94;100.00;102422.00;4853523;29;20104;-81
2023/05/25 02:33:03;;;;;;;11.05;4.75;;;;;;;7.92;100.00;102421.34;4884953;29;20036;-82
2023/05/25 02:35:28;;;;;;;10.73;4.63;;;;;;;7.93;100.00;102423.03;4869791;29;20033;-81
2023/05/25 02:37:53;;;;;;;13.20;5.10;;;;;;;7.88;100.00;102418.13;4884480;29;20517;-81
2023/05/25 02:40:21;;;;;;;15.73;4.67;;;;;;;7.89;100.00;102425.19;4869004;29;20032;-81
2023/05/25 02:42:46;;;;;;;13.25;4.60;;;;;;;7.88;100.00;102430.75;4884944;29;20489;-81
2023/05/25 02:45:12;;;;;;;10.60;4.77;;;;;;;7.84;100.00;102434.78;4868740;29;20084;-81
2023/05/25 02:47:37;;;;;;;12.97;4.77;;;;;;;7.83;100.00;102444.75;4884657;29;20128;-81
2023/05/25 02:50:04;;;;;;;14.80;5.10;;;;;;;7.80;100.00;102433.41;4868871;29;20285;-81
2023/05/25 02:52:32;;;;;;;14.00;5.10;;;;;;;7.77;100.00;102439.97;4853436;29;20028;-81
2023/05/25 02:54:57;;;;;;;16.02;5.38;;;;;;;7.78;100.00;102432.72;4868846;29;20040;-81
2023/05/25 02:57:25;;;;;;;13.97;6.00;;;;;;;7.77;100.00;102433.75;4884284;29;20043;-81
2023/05/25 02:59:51;;;;;;;15.60;5.77;;;;;;;7.73;100.00;102425.91;4854189;29;20036;-90
2023/05/25 03:02:17;;;;;;;14.75;6.32;;;;;;;7.71;100.00;102430.66;4868500;29;20564;-89
2023/05/25 03:04:44;;;;;;;16.98;6.65;;;;;;;7.70;100.00;102428.94;4868699;29;20386;-89
2023/05/25 03:07:13;;;;;;;18.40;7.67;;;;;;;7.67;100.00;102423.84;4884021;29;20490;-89
2023/05/25 03:09:48;;;;;;;15.95;6.78;;;;;;;7.65;100.00;102435.84;4901045;29;20052;-89
2023/05/25 03:12:16;;;;;;;19.85;7.07;;;;;;;7.61;100.00;102435.28;4870187;29;20074;-89
2023/05/25 03:15:10;;;;;;;14.73;6.88;;;;;;;7.59;100.00;102426.50;4883694;29;20492;-89
2023/05/25 03:17:38;;;;;;;15.25;7.45;;;;;;;7.57;100.00;102430.38;4881600;29;20067;-89
2023/05/25 03:20:14;;;;;;;13.07;6.70;;;;;;;7.59;100.00;102449.97;4884180;29;20036;-89
2023/05/25 03:22:40;;;;;;;13.95;7.10;;;;;;;7.55;100.00;102442.16;4883449;29;20036;-89
2023/05/25 03:25:12;;;;;;;19.02;7.43;;;;;;;7.52;100.00;102433.53;4900334;29;20070;-89
2023/05/25 03:27:42;;;;;;;15.07;7.47;;;;;;;7.50;100.00;102439.09;4868790;29;20040;-89
2023/05/25 03:30:08;;;;;;;18.10;7.50;;;;;;;7.49;100.00;102445.50;4868478;29;20052;-90
2023/05/25 03:32:38;;;;;;;16.10;7.43;;;;;;;7.48;100.00;102449.19;4884522;29;20049;-89
2023/05/25 03:35:04;;;;;;;17.30;7.57;;;;;;;7.48;100.00;102454.59;4900420;29;20038;-89
2023/05/25 03:37:30;;;;;;;17.88;7.72;;;;;;;7.48;100.00;102457.31;4883683;29;20147;-89
2023/05/25 03:39:59;;;;;;;19.07;7.73;;;;;;;7.47;100.00;102454.75;4900415;29;20037;-89
2023/05/25 03:42:31;;;;;;;16.00;7.53;;;;;;;7.49;100.00;102460.88;4883456;29;20024;-89
2023/05/25 03:44:59;;;;;;;18.60;8.60;;;;;;;7.47;100.00;102460.16;4883929;29;20068;-90
2023/05/25 03:47:25;;;;;;;19.27;8.33;;;;;;;7.49;100.00;102461.72;4899988;29;20044;-89
2023/05/25 03:49:50;;;;;;;17.23;8.45;;;;;;;7.50;100.00;102468.81;4899811;29;20041;-89
2023/05/25 03:52:16;;;;;;;19.73;8.53;;;;;;;7.52;100.00;102468.66;4883347;29;20036;-89
2023/05/25 03:54:43;;;;;;;19.17;8.90;;;;;;;7.50;100.00;102474.22;4883486;29;20032;-89
2023/05/25 03:57:22;;;;;;;15.63;8.68;;;;;;;7.54;100.00;102475.59;4867918;29;20037;-89
2023/05/25 03:59:47;;;;;;;17.75;9.30;;;;;;;7.53;100.00;102471.19;4883450;29;20029;-89
2023/05/25 04:02:23;;;;;;;;;;;;;;;;;;;;;
2023/05/25 04:04:55;;;;;;;18.33;8.93;;;;;;;7.59;100.00;102485.06;4900504;29;20037;-89
2023/05/25 04:07:21;;;;;;;18.98;9.68;;;;;;;7.60;100.00;102481.38;4868930;29;20084;-89
2023/05/25 04:09:56;;;;;;;19.47;9.73;;;;;;;7.61;100.00;102481.22;4899445;29;20115;-89
2023/05/25 04:12:21;;;;;;;18.13;9.85;;;;;;;7.61;100.00;102478.53;4899976;29;20349;-89
2023/05/25 04:14:52;;;;;;;19.03;10.03;;;;;;;7.63;100.00;102484.63;4882842;29;20397;-89
2023/05/25 04:17:20;;;;;;;20.50;9.52;;;;;;;7.67;100.00;102491.41;4867597;29;20033;-89
2023/05/25 04:19:49;;;;;;;23.80;9.85;;;;;;;7.65;100.00;102482.63;4882394;29;20047;-89
2023/05/25 04:22:14;;;;;;;21.83;9.43;;;;;;;7.65;100.00;102484.47;4900097;29;20077;-90
2023/05/25 04:24:40;;;;;;;15.40;8.83;;;;;;;7.71;100.00;102489.25;4882774;29;20044;-90
2023/05/25 04:27:06;;;;;;;22.30;8.90;;;;;;;7.69;100.00;102481.31;4882510;29;20057;-89
2023/05/25 04:29:31;;;;;;;18.48;8.77;;;;;;;7.73;100.00;102488.06;4899187;29;20033;-89
2023/05/25 04:31:59;;;;;;;16.77;8.40;;;;;;;7.79;100.00;102486.59;4882268;29;20056;-89
2023/05/25 04:34:28;;;;;;;17.45;8.70;;;;;;;7.83;100.00;102493.38;4866967;29;20107;-89
2023/05/25 04:36:55;;;;;;;17.25;8.75;;;;;;;7.87;100.00;102493.94;4883273;29;20033;-90
2023/05/25 04:39:23;;;;;;;21.23;8.50;;;;;;;7.89;100.00;102487.34;4882249;29;20028;-89
2023/05/25 04:41:50;;;;;;;16.10;7.47;;;;;;;7.99;100.00;102497.25;4898847;29;20032;-89
2023/05/25 04:44:16;;;;;;;15.27;7.93;;;;;;;8.00;100.00;102488.09;4881938;29;20041;-89
2023/05/25 04:46:43;;;;;;;18.20;8.15;;;;;;;8.07;100.00;102492.75;4882732;29;20024;-90
2023/05/25 04:49:13;;;;;;;12.48;7.70;;;;;;;8.08;100.00;102493.56;4866450;29;20036;-90
2023/05/25 04:51:51;;;;;;;;;;;;;;;;;;;;;
2023/05/25 04:54:19;;;;;;;17.65;7.90;;;;;;;8.17;100.00;102489.91;4899549;29;20036;-89
2023/05/25 04:56:45;;;;;;;20.23;8.43;;;;;;;8.21;100.00;102494.00;4882085;29;20068;-89
2023/05/25 04:59:12;;;;;;;14.53;7.60;;;;;;;8.24;100.00;102501.78;4881647;29;20461;-89
2023/05/25 05:01:39;;;;;;;16.40;8.05;;;;;;;8.34;100.00;102507.09;4899125;29;20498;-89
2023/05/25 05:04:17;;;;;;;15.57;7.93;;;;;;;8.37;100.00;102504.06;4898575;29;20029;-89
2023/05/25 05:06:43;;;;;;;18.67;7.35;;;;;;;8.42;100.00;102503.59;4867821;29;20029;-89
2023/05/25 05:09:08;;;;;;;17.30;7.83;;;;;;;8.48;100.00;102507.53;4898501;29;20043;-88
2023/05/25 05:11:36;;;;;;;14.95;7.30;;;;;;;8.56;100.00;102507.56;4881561;29;20033;-85
2023/05/25 05:14:01;;;;;;;19.67;7.90;;;;;;;8.65;100.00;102519.28;4899092;29;20037;-85
2023/05/25 05:16:33;;;;;;;16.02;7.60;;;;;;;8.68;100.00;102506.28;4881849;29;20041;-85
2023/05/25 05:18:59;;;;;;;16.03;6.67;;;;;;;8.80;100.00;102514.09;4882935;29;20043;-86
2023/05/25 05:21:24;;;;;;;13.63;7.35;;;;;;;8.85;100.00;102511.78;4881879;29;20039;-85
2023/05/25 05:23:50;;;;;;;17.53;6.63;;;;;;;8.93;100.00;102509.09;4866397;29;20127;-86
2023/05/25 05:26:18;;;;;;;13.23;6.32;;;;;;;9.00;100.00;102529.06;4866084;29;20063;-85
2023/05/25 05:28:52;;;;;;;16.30;6.87;;;;;;;9.06;100.00;102520.28;4881402;29;20028;-86
2023/05/25 05:31:18;;;;;;;15.95;7.10;;;;;;;9.15;100.00;102520.31;4881465;29;20063;-86
2023/05/25 05:33:44;;;;;;;11.75;6.63;;;;;;;9.18;100.00;102526.25;4866212;29;20122;-85
2023/05/25 05:36:12;;;;;;;19.53;6.57;;;;;;;9.28;100.00;102535.06;4898431;29;20033;-84
2023/05/25 05:38:39;;;;;;;16.95;7.57;;;;;;;9.30;100.00;102535.78;4881942;29;20465;-84
2023/05/25 05:41:12;;;;;;;18.30;6.93;;;;;;;9.39;100.00;102530.38;4881855;29;20544;-84
2023/05/25 05:43:42;;;;;;;15.27;6.50;;;;;;;9.48;100.00;102537.50;4881766;29;20029;-84
2023/05/25 05:46:09;;;;;;;15.25;6.03;;;;;;;9.54;100.00;102530.59;4898907;29;20087;-84
2023/05/25 05:48:35;;;;;;;13.33;5.83;;;;;;;9.61;100.00;102539.72;4881241;29;20091;-83
2023/05/25 05:51:01;;;;;;;13.60;5.22;;;;;;;9.71;100.00;102551.25;4865732;29;20041;-83
2023/05/25 05:53:29;;;;;;;15.57;5.55;;;;;;;9.73;100.00;102548.34;4881326;29;20033;-87
2023/05/25 05:55:58;;;;;;;13.82;5.95;;;;;;;9.78;100.00;102556.84;4881441;29;20401;-87
2023/05/25 05:58:28;;;;;;;14.52;5.40;;;;;;;9.84;100.00;102567.00;4881368;29;20494;-86
2023/05/25 06:00:55;;;;;;;16.53;5.30;;;;;;;9.91;100.00;102559.91;4902016;29;20127;-87
2023/05/25 06:03:21;;;;;;;13.35;5.70;;;;;;;9.96;100.00;102560.22;4884806;29;20043;-87
2023/05/25 06:05:49;;;;;;;13.90;5.18;;;;;;;10.01;100.00;102552.44;4884464;29;20099;-87
2023/05/25 06:08:15;;;;;;;16.38;5.35;;;;;;;10.07;100.00;102561.78;4901280;29;20545;-87
2023/05/25 06:10:41;;;;;;;20.20;5.33;;;;;;;10.16;100.00;102568.03;4884451;29;20029;-87
2023/05/25 06:13:10;;;;;;;15.88;4.75;;;;;;;10.19;100.00;102563.13;4901268;29;20043;-87
2023/05/25 06:15:36;;;;;;;12.45;4.57;;;;;;;10.26;100.00;102566.00;4901628;29;20040;-87
2023/05/25 06:18:04;;;;;;;16.67;5.50;;;;;;;10.30;100.00;102563.78;4900832;29;20103;-87
2023/05/25 06:20:30;;;;;;;14.13;5.30;;;;;;;10.35;100.00;102566.88;4854478;29;20048;-87
2023/05/25 06:22:58;;;;;;;14.60;4.97;;;;;;;10.37;100.00;102564.81;4884321;29;20036;-87
2023/05/25 06:28:50;;;;;;;11.35;5.35;;;;;;;10.50;100.00;102570.56;4902144;29;20191;-88
2023/05/25 06:31:19;;;;;;;13.00;4.70;;;;;;;10.58;100.00;102574.28;4884563;29;20513;-87
2023/05/25 06:33:44;;;;;;;14.50;4.63;;;;;;;10.63;100.00;102571.88;4901317;29;20032;-87
2023/05/25 06:36:22;;;;;;;8.98;4.63;;;;;;;10.73;100.00;102594.25;4885203;29;20040;-87
2023/05/25 06:38:55;;;;;;;12.85;5.40;;;;;;;10.76;100.00;102593.91;4869846;29;20047;-88
2023/05/25 06:41:23;;;;;;;12.30;5.17;;;;;;;10.81;100.00;102587.97;4869641;29;20036;-88
2023/05/25 06:43:53;;;;;;;8.00;4.68;;;;;;;10.88;100.00;102581.66;4868866;29;20053;-88
2023/05/25 06:46:21;;;;;;;12.07;5.00;;;;;;;10.91;100.00;102588.63;4868600;29;20048;-88
2023/05/25 06:48:47;;;;;;;11.35;5.60;;;;;;;10.96;100.00;102583.50;4876544;29;20033;-88
2023/05/25 06:51:12;;;;;;;13.50;4.97;;;;;;;11.03;100.00;102597.25;4883925;29;20043;-88
2023/05/25 06:53:43;;;;;;;10.43;5.00;;;;;;;11.11;100.00;102594.47;4885185;29;20044;-88
2023/05/25 06:56:08;;;;;;;8.65;4.70;;;;;;;11.29;100.00;102586.06;4884327;29;20484;-88
2023/05/25 06:58:42;;;;;;;12.02;4.80;;;;;;;11.55;100.00;102593.06;4883520;29;20115;-88
2023/05/25 07:01:15;;;;;;;10.87;4.50;;;;;;;11.70;99.12;102585.81;4884364;29;20431;-88
2023/05/25 07:03:58;;;;;;;12.35;4.68;;;;;;;11.77;98.08;102594.13;4884218;29;20043;-88
2023/05/25 07:06:24;;;;;;;11.02;4.40;;;;;;;11.82;97.39;102597.13;4883915;29;20028;-88
2023/05/25 07:08:54;;;;;;;10.73;4.72;;;;;;;11.93;96.49;102595.91;4883936;29;20033;-87
2023/05/25 07:11:20;;;;;;;8.87;4.70;;;;;;;12.04;96.44;102591.91;4883590;29;20461;-90
2023/05/25 07:13:47;;;;;;;10.98;4.50;;;;;;;12.07;94.84;102603.25;4900568;29;20056;-87
2023/05/25 07:16:15;;;;;;;10.10;4.47;;;;;;;12.03;95.31;102604.66;4883786;29;20473;-88
2023/05/25 07:18:43;;;;;;;16.48;5.13;;;;;;;12.05;95.45;102596.31;4884242;29;20112;-88
2023/05/25 07:21:10;;;;;;;12.00;5.30;;;;;;;12.14;95.27;102595.22;4883868;29;20124;-88
2023/05/25 07:23:36;;;;;;;13.33;4.50;;;;;;;12.26;93.30;102601.91;4883517;29;20032;-88
2023/05/25 07:26:05;;;;;;;10.70;4.53;;;;;;;12.36;92.07;102601.66;4884018;29;20479;-88
2023/05/25 07:28:30;;;;;;;11.40;4.55;;;;;;;12.44;92.55;102612.44;4867826;29;20088;-88
2023/05/25 07:30:58;;;;;;;12.23;5.03;;;;;;;12.48;91.54;102606.66;4883456;29;20401;-88
2023/05/25 07:33:35;;;;;;;11.52;4.78;;;;;;;12.53;91.50;102599.59;4900174;29;20040;-88
2023/05/25 07:36:00;;;;;;;10.55;4.28;;;;;;;12.61;90.29;102606.88;4883936;29;20036;-88
2023/05/25 07:38:38;;;;;;;;;;;;;;;;;;;;;
2023/05/25 07:41:12;;;;;;;11.05;4.50;;;;;;;12.70;89.80;102600.28;4900416;29;20025;-88
2023/05/25 07:43:42;;;;;;;12.98;4.65;;;;;;;12.75;90.08;102603.28;4884120;29;20385;-88
2023/05/25 07:46:08;;;;;;;13.77;5.57;;;;;;;12.76;88.45;102602.25;4883123;29;20047;-88
2023/05/25 07:48:36;;;;;;;14.80;4.80;;;;;;;12.79;89.19;102614.66;4883271;29;20025;-88
2023/05/25 07:51:01;;;;;;;12.13;4.93;;;;;;;12.87;90.07;102608.28;4883023;29;20473;-88
2023/05/25 07:53:32;;;;;;;11.17;4.60;;;;;;;12.93;88.41;102612.97;4882825;29;20029;-88
2023/05/25 07:55:57;;;;;;;11.23;4.53;;;;;;;12.96;86.99;102618.03;4883310;29;20079;-88
2023/05/25 07:58:23;;;;;;;10.33;4.10;;;;;;;12.98;86.37;102613.25;4883149;29;20036;-88
2023/05/25 08:00:49;;;;;;;8.02;3.85;;;;;;;12.97;85.22;102615.13;4882664;29;20029;-87
2023/05/25 08:03:20;;;;;;;10.70;4.03;;;;;;;12.95;85.04;102624.53;4883028;29;20033;-88
2023/05/25 08:05:53;;;;;;;11.95;5.00;;;;;;;12.96;84.79;102610.72;4866945;29;20040;-88
2023/05/25 08:08:24;;;;;;;10.85;4.25;;;;;;;13.08;85.77;102613.81;4882772;29;20028;-88
2023/05/25 08:10:49;;;;;;;13.30;4.47;;;;;;;13.19;85.89;102620.66;4899374;29;20044;-89
2023/05/25 08:13:17;;;;;;;10.87;4.60;;;;;;;13.27;85.07;102620.56;4882703;29;20449;-88
2023/05/25 08:15:48;;;;;;;10.23;4.63;;;;;;;13.34;85.60;102615.22;4883000;29;20517;-88
2023/05/25 08:18:17;;;;;;;14.17;4.23;;;;;;;13.42;85.18;102623.31;4882719;29;20059;-89
2023/05/25 08:20:42;;;;;;;9.48;4.55;;;;;;;13.49;84.50;102624.22;4882610;29;20028;-90
2023/05/25 08:23:12;;;;;;;15.00;4.40;;;;;;;13.56;83.00;102631.66;4881311;29;20107;-89
2023/05/25 08:25:38;;;;;;;14.37;4.97;;;;;;;13.66;82.61;102627.56;4868573;29;20075;-89
2023/05/25 08:28:15;;;;;;;13.00;4.40;;;;;;;13.86;83.31;102629.66;4882269;29;20135;-89
2023/05/25 08:30:42;;;;;;;11.98;4.05;;;;;;;14.07;81.97;102615.19;4867808;29;20087;-89
2023/05/25 08:33:09;;;;;;;16.13;4.37;;;;;;;14.41;80.57;102627.25;4883088;29;20639;-88
2023/05/25 08:35:38;;;;;;;9.95;4.18;;;;;;;14.64;77.07;102626.19;4866992;29;20064;-88
2023/05/25 08:38:23;;;;;;;10.38;4.00;;;;;;;14.64;77.52;102621.53;4882899;29;20037;-88
2023/05/25 08:41:01;;;;;;;9.88;3.63;;;;;;;14.67;75.90;102633.97;4882624;29;20458;-88
2023/05/25 08:43:32;;;;;;;12.25;3.50;;;;;;;14.90;75.12;102640.00;4882722;29;20063;-89
2023/05/25 08:46:05;;;;;;;10.77;3.50;;;;;;;15.06;73.36;102632.53;4881679;29;20029;-89
2023/05/25 08:48:34;;;;;;;10.30;3.47;;;;;;;15.27;72.35;102634.31;4899041;29;20036;-89
2023/05/25 08:51:12;;;;;;;9.95;3.97;;;;;;;15.51;72.60;102623.91;4882860;29;20033;-88
2023/05/25 08:53:39;;;;;;;13.93;3.55;;;;;;;15.96;69.51;102630.56;4882335;29;20028;-89
2023/05/25 08:56:23;;;;;;;9.60;3.55;;;;;;;16.44;70.29;102634.19;4882335;29;20172;-88
2023/05/25 08:59:04;;;;;;;7.93;3.63;;;;;;;16.70;67.09;102627.84;4881983;29;20106;-90
2023/05/25 09:01:37;;;;;;;8.57;3.30;;;;;;;16.90;65.50;102637.94;4882274;29;20047;-88
2023/05/25 09:04:06;;;;;;;8.95;3.90;;;;;;;16.99;63.92;102629.28;4899359;29;20029;-89
2023/05/25 09:06:44;;;;;;;12.13;3.65;;;;;;;17.22;64.25;102638.06;4881959;29;20455;-87
2023/05/25 09:09:20;;;;;;;9.55;3.50;;;;;;;17.48;62.43;102642.59;4898477;29;20028;-88
2023/05/25 09:11:48;;;;;;;9.23;3.30;;;;;;;17.54;61.30;102641.75;4866130;29;20040;-89
2023/05/25 09:14:17;;;;;;;9.32;3.00;;;;;;;17.63;61.03;102640.41;4898639;29;20064;-88
2023/05/25 09:16:51;;;;;;;9.23;3.13;;;;;;;17.82;60.66;102637.75;4881502;29;20136;-88
2023/05/25 09:19:20;;;;;;;8.07;3.55;;;;;;;17.99;60.15;102640.88;4867451;29;20060;-88
2023/05/25 09:21:45;;;;;;;7.85;3.70;;;;;;;18.00;59.39;102645.31;4881796;29;20393;-87
2023/05/25 09:24:14;;;;;;;8.87;3.23;;;;;;;18.05;60.18;102639.97;4898203;29;20092;-87
2023/05/25 09:26:40;;;;;;;9.73;3.40;;;;;;;18.23;60.14;102640.06;4882577;29;20040;-88
2023/05/25 09:29:05;;;;;;;12.43;3.50;;;;;;;18.24;59.25;102641.72;4898225;29;20575;-88
2023/05/25 09:31:31;;;;;;;9.75;3.20;;;;;;;18.24;58.62;102638.97;4866027;29;20063;-88
2023/05/25 09:34:00;;;;;;;9.30;3.67;;;;;;;18.23;58.46;102636.44;4882942;29;20064;-87
2023/05/25 09:36:25;;;;;;;8.52;3.42;;;;;;;18.06;58.50;102637.00;4885652;29;20024;-88
2023/05/25 09:38:55;;;;;;;8.13;2.90;;;;;;;17.91;57.89;102649.34;4885170;29;20418;-87
2023/05/25 09:41:23;;;;;;;11.18;3.28;;;;;;;17.74;58.53;102651.75;4885555;29;20036;-87
2023/05/25 09:44:00;;;;;;;11.50;3.30;;;;;;;17.68;60.00;102654.31;4885866;29;20029;-88
2023/05/25 09:46:28;;;;;;;10.32;3.33;;;;;;;17.66;58.86;102648.22;4886532;29;20048;-88
2023/05/25 09:48:53;;;;;;;10.32;3.38;;;;;;;17.88;58.85;102645.97;4901811;29;20033;-87
2023/05/25 09:51:22;;;;;;;9.30;2.90;;;;;;;18.24;57.45;102643.66;4869458;29;20044;-88
2023/05/25 09:53:48;;;;;;;7.93;2.80;;;;;;;18.49;55.83;102645.56;4902083;29;20076;-88
2023/05/25 09:56:16;;;;;;;10.40;3.00;;;;;;;18.42;55.74;102648.34;4884989;29;20127;-87
2023/05/25 09:58:54;;;;;;;;;;;;;;;;;;;;;
2023/05/25 10:01:23;;;;;;;9.65;2.65;;;;;;;18.30;56.56;102655.66;4902470;29;20032;-87
2023/05/25 10:03:49;;;;;;;13.30;2.90;;;;;;;18.61;55.27;102653.91;4884890;29;20136;-87
2023/05/25 10:06:18;;;;;;;10.47;3.53;;;;;;;18.78;54.17;102657.78;4884922;29;20047;-87
2023/05/25 10:08:52;;;;;;;10.88;3.22;;;;;;;18.87;53.84;102661.09;4885834;29;20028;-88
2023/05/25 10:11:21;;;;;;;10.75;3.10;;;;;;;19.13;54.15;102657.19;4902381;29;20112;-88
2023/05/25 10:13:49;;;;;;;10.73;3.55;;;;;;;19.30;53.47;102649.19;4885937;29;20480;-88
2023/05/25 10:16:17;;;;;;;10.45;3.75;;;;;;;19.36;53.60;102655.69;4885092;29;20072;-88
2023/05/25 10:19:03;;;;;;;12.40;3.70;;;;;;;19.53;55.06;102650.38;4884682;29;20032;-88
2023/05/25 10:21:33;;;;;;;11.30;3.53;;;;;;;19.83;52.35;102663.31;4901617;29;20111;-88
2023/05/25 10:24:29;;;;;;;11.00;3.58;;;;;;;20.37;52.54;102660.59;4901684;29;20032;-88
2023/05/25 10:27:00;;;;;;;10.65;3.08;;;;;;;20.56;50.03;102651.16;4901606;29;20462;-88
2023/05/25 10:29:30;;;;;;;14.23;3.33;;;;;;;20.86;49.28;102650.25;4901542;29;20032;-88
2023/05/25 10:32:01;;;;;;;9.63;3.43;;;;;;;20.82;48.11;102654.56;4884376;29;20498;-88
2023/05/25 10:34:29;;;;;;;8.90;3.28;;;;;;;20.81;48.76;102650.94;4885210;29;20067;-87
2023/05/25 10:37:01;;;;;;;9.95;2.92;;;;;;;20.89;47.43;102652.50;4884608;29;20031;-88
2023/05/25 10:39:27;;;;;;;12.35;3.20;;;;;;;21.15;46.67;102659.41;4884563;29;20044;-88
2023/05/25 10:41:59;;;;;;;10.82;3.45;;;;;;;21.29;46.52;102654.47;4883910;29;20059;-88
2023/05/25 10:44:25;;;;;;;9.53;3.20;;;;;;;21.16;45.77;102655.56;4884567;29;20381;-88
2023/05/25 10:46:50;;;;;;;15.63;3.70;;;;;;;21.32;46.11;102658.69;4884137;29;20101;-88
2023/05/25 10:49:53;;;;;;;7.82;3.20;;;;;;;21.29;46.86;102656.38;4885249;29;20048;-88
2023/05/25 10:52:19;;;;;;;8.70;3.10;;;;;;;21.08;46.14;102660.63;4884397;29;20033;-88
2023/05/25 10:55:03;;;;;;;10.73;3.30;;;;;;;21.22;45.41;102655.69;4900916;29;20051;-88
2023/05/25 10:57:33;;;;;;;6.40;2.85;;;;;;;21.56;44.31;102656.69;4870610;29;20032;-88
2023/05/25 11:00:07;;;;;;;10.25;3.17;;;;;;;21.92;44.98;102656.53;4853077;29;20481;-88
2023/05/25 11:02:54;;;;;;;11.27;2.97;;;;;;;22.67;45.00;102657.28;4884627;29;20534;-88
2023/05/25 11:05:28;;;;;;;7.07;3.00;;;;;;;22.45;42.36;102651.66;4883990;29;20028;-88
2023/05/25 11:07:57;;;;;;;7.75;3.22;;;;;;;22.32;42.62;102659.22;4883715;29;20041;-88
2023/05/25 11:10:52;;;;;;;7.55;3.00;;;;;;;22.22;43.44;102651.56;4884067;29;20461;-88
2023/05/25 11:13:32;;;;;;;6.28;2.75;;;;;;;22.38;43.19;102655.44;4884372;29;20442;-89
2023/05/25 11:16:26;;;;;;;6.78;3.15;;;;;;;23.40;41.07;102649.72;4883742;29;20060;-88
2023/05/25 11:18:56;;;;;;;11.20;3.03;;;;;;;25.90;35.53;102644.47;4884462;29;20096;-88
2023/05/25 11:21:42;;;;;;;8.30;2.78;;;;;;;27.97;31.79;102645.59;4900735;29;20043;-88
2023/05/25 11:24:13;;;;;;;9.55;3.53;;;;;;;28.49;31.49;102641.22;4883923;29;20036;-88
2023/05/25 11:26:52;;;;;;;8.15;2.97;;;;;;;27.59;32.70;102645.25;4883320;29;20111;-89
2023/05/25 11:29:20;;;;;;;8.20;3.70;;;;;;;26.17;32.67;102647.00;4900557;29;20033;-90
2023/05/25 11:31:52;;;;;;;9.33;3.53;;;;;;;25.36;34.27;102642.94;4883124;29;20084;-88
2023/05/25 11:34:45;;;;;;;9.45;3.53;;;;;;;24.73;35.34;102637.34;4901158;29;20160;-88
2023/05/25 11:37:23;;;;;;;10.00;3.38;;;;;;;24.16;37.43;102643.28;4878140;29;20073;-89
2023/05/25 11:39:53;;;;;;;8.27;3.70;;;;;;;25.74;35.50;102619.41;4900551;29;20120;-88